Time;durP1;ratioP1;P1;durP2;ratioP2;P2;SDS_P1;SDS_P2;PMS_P1;PMS_P2;Temp;Humidity;BMP_temperature;BMP_pressure;BME280_temperature;BME280_humidity;BME280_pressure;Samples;Min_cycle;Max_cycle;Signal;HPM_P1;HPM_P2
2022/03/25 00:00:27;;;;;;;79.22;42.63;;;;;;;3.15;100.00;102804.00;5049065;28;20043;-77
2022/03/25 00:02:53;;;;;;;78.90;42.92;;;;;;;3.13;100.00;102803.22;5065905;28;20063;-77
2022/03/25 00:05:19;;;;;;;77.70;43.92;;;;;;;3.05;100.00;102792.22;5047514;28;20109;-76
2022/03/25 00:07:45;;;;;;;82.32;45.17;;;;;;;3.10;100.00;102798.09;5050340;28;20036;-77
2022/03/25 00:10:10;;;;;;;81.40;44.83;;;;;;;3.08;100.00;102802.50;5066711;28;20056;-77
2022/03/25 00:12:37;;;;;;;77.53;45.42;;;;;;;3.04;100.00;102800.91;5050950;28;20378;-77
2022/03/25 00:15:04;;;;;;;81.30;45.15;;;;;;;2.98;100.00;102796.75;5030321;28;20039;-76
2022/03/25 00:17:29;;;;;;;76.68;43.78;;;;;;;2.99;100.00;102800.19;5045316;28;20060;-76
2022/03/25 00:19:55;;;;;;;76.88;42.70;;;;;;;2.96;100.00;102805.44;5043542;28;20063;-75
2022/03/25 00:22:20;;;;;;;77.32;42.35;;;;;;;2.94;100.00;102805.53;5046093;28;20052;-77
2022/03/25 00:24:46;;;;;;;73.82;42.22;;;;;;;2.86;100.00;102790.19;5065212;28;20060;-77
2022/03/25 00:27:11;;;;;;;78.13;42.75;;;;;;;2.79;100.00;102795.59;5040961;28;20051;-76
2022/03/25 00:29:37;;;;;;;76.90;41.17;;;;;;;2.78;100.00;102797.34;5031499;28;20048;-77
2022/03/25 00:32:03;;;;;;;83.00;42.47;;;;;;;2.72;100.00;102798.38;5065013;28;20032;-78
2022/03/25 00:34:30;;;;;;;82.75;44.50;;;;;;;2.71;100.00;102795.81;5045425;28;20045;-77
2022/03/25 00:36:56;;;;;;;85.90;45.75;;;;;;;2.63;100.00;102788.25;5032444;28;20048;-79
2022/03/25 00:39:22;;;;;;;74.13;42.42;;;;;;;2.65;100.00;102796.00;5044018;28;20093;-78
2022/03/25 00:41:48;;;;;;;73.25;43.25;;;;;;;2.62;100.00;102796.94;5062280;28;20406;-75
2022/03/25 00:44:17;;;;;;;81.82;44.17;;;;;;;2.57;100.00;102790.22;5033763;28;20040;-77
2022/03/25 00:46:44;;;;;;;74.93;42.05;;;;;;;2.51;100.00;102794.66;5051108;28;20115;-78
2022/03/25 00:49:11;;;;;;;70.03;40.92;;;;;;;2.49;100.00;102793.03;5052506;28;20032;-78
2022/03/25 00:51:37;;;;;;;81.05;42.53;;;;;;;2.46;100.00;102793.94;5052405;28;20102;-76
2022/03/25 00:54:03;;;;;;;83.40;41.83;;;;;;;2.46;100.00;102786.16;5035084;28;20048;-76
2022/03/25 00:56:29;;;;;;;74.68;40.15;;;;;;;2.41;100.00;102789.78;5051291;28;20040;-76
2022/03/25 00:58:56;;;;;;;84.88;42.90;;;;;;;2.41;100.00;102795.84;5054549;28;20036;-78
2022/03/25 01:01:22;;;;;;;79.72;39.92;;;;;;;2.37;100.00;102794.19;5067940;28;20775;-77
2022/03/25 01:03:47;;;;;;;88.45;44.28;;;;;;;2.34;100.00;102789.97;5048207;28;20106;-77
2022/03/25 01:06:15;;;;;;;73.75;40.60;;;;;;;2.39;100.00;102800.19;5062606;28;20063;-77
2022/03/25 01:08:41;;;;;;;83.07;43.22;;;;;;;2.34;100.00;102792.53;5042628;28;20615;-79
2022/03/25 01:11:06;;;;;;;77.10;42.65;;;;;;;2.31;100.00;102795.22;5052283;28;20131;-77
2022/03/25 01:13:33;;;;;;;73.93;41.38;;;;;;;2.29;100.00;102794.41;5053268;28;20058;-78
2022/03/25 01:16:01;;;;;;;84.88;46.78;;;;;;;2.29;100.00;102796.16;5043030;28;20036;-79
2022/03/25 01:18:27;;;;;;;94.45;49.60;;;;;;;2.24;100.00;102792.84;5054168;28;20401;-77
2022/03/25 01:20:52;;;;;;;79.53;45.40;;;;;;;2.21;100.00;102798.97;5060042;28;20060;-78
2022/03/25 01:23:18;;;;;;;76.82;42.85;;;;;;;2.12;100.00;102794.88;5042268;28;20087;-79
2022/03/25 01:25:44;;;;;;;79.88;44.13;;;;;;;2.11;100.00;102797.50;5070115;28;20807;-80
2022/03/25 01:28:11;;;;;;;77.53;44.17;;;;;;;2.05;100.00;102792.50;5037837;28;20036;-76
2022/03/25 01:30:36;;;;;;;79.68;44.05;;;;;;;2.06;100.00;102796.78;5054030;28;20044;-77
2022/03/25 01:33:03;;;;;;;83.22;43.58;;;;;;;2.08;100.00;102802.78;5048239;28;20138;-79
2022/03/25 01:35:28;;;;;;;87.93;46.20;;;;;;;2.02;100.00;102795.19;5028826;28;20037;-77
2022/03/25 01:37:55;;;;;;;74.78;43.03;;;;;;;2.01;100.00;102794.31;5044703;28;20041;-77
2022/03/25 01:40:21;;;;;;;84.05;44.97;;;;;;;2.03;100.00;102797.69;5053953;28;20040;-79
2022/03/25 01:42:48;;;;;;;83.22;45.97;;;;;;;2.06;100.00;102804.56;5054594;28;20381;-78
2022/03/25 01:45:13;;;;;;;85.20;45.38;;;;;;;2.02;100.00;102803.78;5038951;28;20040;-78
2022/03/25 01:47:41;;;;;;;88.90;46.95;;;;;;;2.05;100.00;102801.09;5055801;28;20039;-77
2022/03/25 01:50:19;;;;;;;81.93;45.67;;;;;;;2.08;100.00;102800.19;5024526;28;20052;-78
2022/03/25 01:52:46;;;;;;;75.95;43.97;;;;;;;2.07;100.00;102804.53;5071023;28;20037;-78
2022/03/25 01:55:20;;;;;;;84.32;42.25;;;;;;;2.03;100.00;102802.88;5032323;28;20036;-77
2022/03/25 01:57:45;;;;;;;81.70;44.90;;;;;;;2.06;100.00;102797.63;5056254;28;20032;-78
2022/03/25 02:00:17;;;;;;;76.63;44.47;;;;;;;2.00;100.00;102802.97;5040023;28;20048;-78
2022/03/25 02:02:48;;;;;;;72.68;41.70;;;;;;;1.91;100.00;102792.88;5051847;28;20040;-80
2022/03/25 02:05:15;;;;;;;81.53;44.75;;;;;;;1.86;100.00;102795.56;5071287;28;20513;-78
2022/03/25 02:07:41;;;;;;;73.43;42.70;;;;;;;1.87;100.00;102793.84;5028800;28;20041;-79
2022/03/25 02:10:07;;;;;;;73.32;43.85;;;;;;;1.88;100.00;102796.38;5050109;28;20037;-79
2022/03/25 02:12:35;;;;;;;71.13;42.80;;;;;;;1.83;100.00;102790.47;5054600;28;20051;-78
2022/03/25 02:15:02;;;;;;;78.28;43.58;;;;;;;1.89;100.00;102798.06;5048369;28;20033;-78
2022/03/25 02:17:29;;;;;;;74.90;43.40;;;;;;;1.87;100.00;102786.91;5048494;28;20555;-77
2022/03/25 02:19:56;;;;;;;79.05;44.63;;;;;;;1.90;100.00;102791.16;5055885;28;20044;-79
2022/03/25 02:22:24;;;;;;;75.40;43.13;;;;;;;1.90;100.00;102789.44;5037523;28;20040;-78
2022/03/25 02:24:50;;;;;;;70.15;43.05;;;;;;;1.93;100.00;102797.09;5039389;28;20460;-77
2022/03/25 02:27:17;;;;;;;74.13;42.10;;;;;;;1.84;100.00;102786.97;5036880;28;20037;-79
2022/03/25 02:29:43;;;;;;;68.45;40.58;;;;;;;1.79;100.00;102794.03;5026292;28;20045;-78
2022/03/25 02:32:10;;;;;;;75.18;43.03;;;;;;;1.72;100.00;102795.09;5035364;28;20044;-76
2022/03/25 02:34:37;;;;;;;75.07;42.60;;;;;;;1.71;100.00;102789.06;5055585;28;20040;-77
2022/03/25 02:37:05;;;;;;;74.32;41.90;;;;;;;1.73;100.00;102791.59;5071088;28;20067;-77
2022/03/25 02:39:31;;;;;;;75.68;42.67;;;;;;;1.77;100.00;102789.78;5070015;28;20044;-78
2022/03/25 02:41:57;;;;;;;74.82;43.22;;;;;;;1.81;100.00;102783.63;5038382;28;20040;-78
2022/03/25 02:44:23;;;;;;;80.78;42.72;;;;;;;1.83;100.00;102785.31;5038856;28;20041;-77
2022/03/25 02:46:50;;;;;;;78.45;44.58;;;;;;;1.82;100.00;102781.00;5038364;28;20370;-79
2022/03/25 02:49:18;;;;;;;78.97;42.60;;;;;;;1.78;100.00;102776.81;5038145;28;20097;-79
2022/03/25 02:51:44;;;;;;;86.18;46.55;;;;;;;1.71;100.00;102785.59;5047588;28;20032;-77
2022/03/25 02:54:09;;;;;;;81.03;43.33;;;;;;;1.62;100.00;102784.13;5047332;28;20437;-77
2022/03/25 02:56:35;;;;;;;78.50;44.63;;;;;;;1.57;100.00;102779.94;5027728;28;20037;-79
2022/03/25 02:59:01;;;;;;;77.03;43.10;;;;;;;1.53;100.00;102780.00;5041047;28;20697;-75
2022/03/25 03:01:27;;;;;;;72.80;41.92;;;;;;;1.51;100.00;102779.19;5044805;28;20059;-77
2022/03/25 03:03:53;;;;;;;81.75;43.28;;;;;;;1.46;100.00;102786.22;5055081;28;20072;-79
2022/03/25 03:06:19;;;;;;;72.35;41.95;;;;;;;1.45;100.00;102781.94;5053764;28;20189;-78
2022/03/25 03:08:45;;;;;;;72.22;41.17;;;;;;;1.49;100.00;102785.31;5070333;28;20513;-77
2022/03/25 03:11:11;;;;;;;78.60;43.58;;;;;;;1.49;100.00;102770.63;5035807;28;20071;-78
2022/03/25 03:13:38;;;;;;;79.90;44.47;;;;;;;1.57;100.00;102787.72;5070903;28;20056;-78
2022/03/25 03:16:04;;;;;;;82.18;44.90;;;;;;;1.61;100.00;102782.41;5022777;28;20064;-79
2022/03/25 03:18:30;;;;;;;81.78;45.35;;;;;;;1.62;100.00;102783.25;5072449;28;20029;-78
2022/03/25 03:20:55;;;;;;;84.70;45.90;;;;;;;1.65;100.00;102789.19;5023824;28;20685;-78
2022/03/25 03:23:21;;;;;;;90.57;48.90;;;;;;;1.68;100.00;102777.94;5054676;28;20163;-77
2022/03/25 03:25:47;;;;;;;90.07;50.38;;;;;;;1.67;100.00;102779.66;5069126;28;20060;-78
2022/03/25 03:28:13;;;;;;;96.43;51.28;;;;;;;1.74;100.00;102780.38;5067397;28;20063;-76
2022/03/25 03:30:38;;;;;;;98.38;49.85;;;;;;;1.75;100.00;102776.88;5032743;28;20025;-78
2022/03/25 03:33:05;;;;;;;97.70;51.22;;;;;;;1.74;100.00;102782.94;5050709;28;20466;-77
2022/03/25 03:35:34;;;;;;;92.13;49.47;;;;;;;1.70;100.00;102778.75;5067904;28;20021;-78
2022/03/25 03:38:01;;;;;;;93.20;49.85;;;;;;;1.67;100.00;102777.06;5060561;28;20028;-77
2022/03/25 03:40:27;;;;;;;96.90;51.15;;;;;;;1.70;100.00;102778.75;5069568;28;20037;-77
2022/03/25 03:42:53;;;;;;;95.05;51.60;;;;;;;1.70;100.00;102777.00;5029728;28;20040;-78
2022/03/25 03:45:19;;;;;;;93.65;49.50;;;;;;;1.64;100.00;102774.59;5062931;28;20043;-79
2022/03/25 03:47:45;;;;;;;91.40;47.92;;;;;;;1.65;100.00;102783.19;5034051;28;20040;-78
2022/03/25 03:50:14;;;;;;;86.25;49.95;;;;;;;1.49;100.00;102780.97;5050745;28;20040;-77
2022/03/25 03:52:40;;;;;;;99.47;50.85;;;;;;;1.36;100.00;102780.41;5029578;28;20056;-78
2022/03/25 03:55:07;;;;;;;86.93;47.15;;;;;;;1.29;100.00;102778.03;5052950;28;20045;-79
2022/03/25 03:57:51;;;;;;;84.68;47.03;;;;;;;1.18;100.00;102775.69;5069810;28;20032;-77
2022/03/25 04:00:17;;;;;;;86.55;47.58;;;;;;;1.18;100.00;102773.09;5044682;28;20379;-77
2022/03/25 04:02:46;;;;;;;80.97;45.45;;;;;;;1.13;100.00;102778.38;5068869;28;20040;-78
2022/03/25 04:05:12;;;;;;;85.32;48.10;;;;;;;1.13;100.00;102783.56;5029562;28;20033;-79
2022/03/25 04:07:46;;;;;;;85.30;47.38;;;;;;;1.19;100.00;102784.28;5061522;28;20540;-77
2022/03/25 04:10:13;;;;;;;86.03;46.63;;;;;;;1.24;100.00;102778.13;5051312;28;20032;-76
2022/03/25 04:12:38;;;;;;;82.68;45.53;;;;;;;1.20;100.00;102781.66;5043414;28;20119;-79
2022/03/25 04:15:08;;;;;;;77.20;44.22;;;;;;;1.12;100.00;102779.25;5053812;28;20177;-79
2022/03/25 04:17:33;;;;;;;80.53;44.30;;;;;;;1.07;100.00;102790.59;5037629;28;20071;-78
2022/03/25 04:19:59;;;;;;;82.72;45.03;;;;;;;1.05;100.00;102780.28;5070880;28;20064;-77
2022/03/25 04:22:24;;;;;;;83.47;44.90;;;;;;;1.04;100.00;102780.34;5059785;28;20044;-77
2022/03/25 04:24:50;;;;;;;81.55;44.58;;;;;;;1.04;100.00;102793.25;5036713;28;20033;-78
2022/03/25 04:27:15;;;;;;;79.97;43.13;;;;;;;1.02;100.00;102788.13;5029074;28;20039;-78
2022/03/25 04:29:41;;;;;;;77.53;42.72;;;;;;;1.03;100.00;102794.13;5029928;28;20545;-79
2022/03/25 04:32:07;;;;;;;79.45;44.80;;;;;;;0.97;100.00;102789.94;5069099;28;20045;-78
2022/03/25 04:34:33;;;;;;;101.20;50.38;;;;;;;0.85;100.00;102793.66;5064772;28;20106;-77
2022/03/25 04:36:58;;;;;;;82.95;46.75;;;;;;;0.76;100.00;102793.84;5046317;28;20036;-78
2022/03/25 04:39:24;;;;;;;87.38;46.58;;;;;;;0.75;100.00;102797.31;5052215;28;20119;-77
2022/03/25 04:41:50;;;;;;;82.35;44.65;;;;;;;0.74;100.00;102799.06;5036515;28;20512;-79
2022/03/25 04:44:15;;;;;;;87.75;45.15;;;;;;;0.74;100.00;102799.06;5060561;28;20453;-78
2022/03/25 04:46:41;;;;;;;79.13;44.20;;;;;;;0.80;100.00;102802.41;5031273;28;20037;-76
2022/03/25 04:49:08;;;;;;;82.55;46.63;;;;;;;0.80;100.00;102799.81;5050076;28;20028;-79
2022/03/25 04:51:34;;;;;;;86.13;45.47;;;;;;;0.86;100.00;102797.94;5033485;28;20128;-77
2022/03/25 04:54:00;;;;;;;83.50;44.58;;;;;;;0.85;100.00;102806.59;5029029;28;20033;-77
2022/03/25 04:56:26;;;;;;;83.50;45.15;;;;;;;0.89;100.00;102794.44;5028924;28;20119;-79
2022/03/25 04:58:51;;;;;;;87.57;46.50;;;;;;;0.87;100.00;102801.38;5053059;28;20075;-79
2022/03/25 05:01:17;;;;;;;86.47;46.63;;;;;;;0.80;100.00;102811.00;5055465;28;20699;-79
2022/03/25 05:03:43;;;;;;;79.78;43.67;;;;;;;0.78;100.00;102805.84;5056418;28;20032;-79
2022/03/25 05:06:08;;;;;;;78.90;44.85;;;;;;;0.72;100.00;102810.31;5038423;28;20067;-79
2022/03/25 05:08:34;;;;;;;90.70;48.28;;;;;;;0.72;100.00;102812.91;5031903;28;20032;-78
2022/03/25 05:10:59;;;;;;;86.35;47.70;;;;;;;0.69;100.00;102813.78;5050883;28;20025;-78
2022/03/25 05:13:25;;;;;;;87.80;47.30;;;;;;;0.75;100.00;102807.66;5038859;28;20081;-79
2022/03/25 05:15:51;;;;;;;83.80;45.28;;;;;;;0.75;100.00;102805.94;5039245;28;20029;-78
2022/03/25 05:18:17;;;;;;;82.40;44.78;;;;;;;0.77;100.00;102798.13;5056449;28;20044;-78
2022/03/25 05:20:42;;;;;;;87.60;46.38;;;;;;;0.83;100.00;102816.09;5037500;28;20123;-79
2022/03/25 05:23:08;;;;;;;81.32;45.10;;;;;;;0.81;100.00;102809.25;5047684;28;20098;-78
2022/03/25 05:25:34;;;;;;;81.07;43.50;;;;;;;0.78;100.00;102812.75;5052483;28;20367;-78
2022/03/25 05:28:00;;;;;;;81.28;44.33;;;;;;;0.81;100.00;102814.41;5059444;28;20036;-78
2022/03/25 05:30:29;;;;;;;90.82;45.63;;;;;;;0.86;100.00;102817.75;5042736;28;20032;-78
2022/03/25 05:32:56;;;;;;;79.63;44.03;;;;;;;0.89;100.00;102822.88;5036516;28;20086;-78
2022/03/25 05:35:23;;;;;;;81.57;43.88;;;;;;;0.86;100.00;102823.78;5059965;28;20044;-78
2022/03/25 05:37:49;;;;;;;77.97;42.95;;;;;;;0.84;100.00;102822.13;5048900;28;20032;-78
2022/03/25 05:40:16;;;;;;;75.38;41.40;;;;;;;0.85;100.00;102822.09;5081555;28;20044;-78
2022/03/25 05:42:42;;;;;;;76.30;41.58;;;;;;;0.84;100.00;102820.38;5067446;28;20902;-78
2022/03/25 05:45:09;;;;;;;79.57;43.92;;;;;;;0.86;100.00;102830.69;5054309;28;20044;-78
2022/03/25 05:47:36;;;;;;;77.40;41.80;;;;;;;0.90;100.00;102829.72;5072353;28;20036;-76
2022/03/25 05:50:04;;;;;;;78.57;43.30;;;;;;;0.93;100.00;102827.09;5027312;28;20036;-77
2022/03/25 05:52:30;;;;;;;75.35;43.47;;;;;;;0.99;100.00;102826.94;5043825;28;20071;-78
2022/03/25 05:54:55;;;;;;;77.97;43.05;;;;;;;1.09;100.00;102830.16;5076625;28;20036;-77
2022/03/25 05:57:21;;;;;;;76.28;43.50;;;;;;;1.16;100.00;102836.91;5050800;28;20039;-77
2022/03/25 05:59:47;;;;;;;88.97;44.38;;;;;;;1.25;100.00;102834.13;5059845;28;20032;-78
2022/03/25 06:02:13;;;;;;;83.18;44.15;;;;;;;1.35;100.00;102839.94;5058509;28;20040;-77
2022/03/25 06:04:40;;;;;;;75.70;44.25;;;;;;;1.41;100.00;102841.53;5042888;28;20336;-78
2022/03/25 06:07:06;;;;;;;74.70;42.97;;;;;;;1.49;100.00;102847.38;5033986;28;20052;-76
2022/03/25 06:09:32;;;;;;;77.85;42.80;;;;;;;1.58;100.00;102849.72;5061295;28;20032;-78
2022/03/25 06:11:58;;;;;;;76.88;43.80;;;;;;;1.66;100.00;102852.16;5057856;28;20044;-77
2022/03/25 06:14:25;;;;;;;79.13;43.47;;;;;;;1.71;100.00;102858.03;5073480;28;20044;-78
2022/03/25 06:16:53;;;;;;;81.80;44.17;;;;;;;1.79;100.00;102861.31;5048220;28;20420;-77
2022/03/25 06:19:18;;;;;;;85.88;45.55;;;;;;;1.86;100.00;102868.03;5073034;28;20066;-78
2022/03/25 06:21:44;;;;;;;83.93;46.28;;;;;;;1.92;100.00;102867.88;5032840;28;20025;-78
2022/03/25 06:24:10;;;;;;;84.70;44.90;;;;;;;2.07;100.00;102870.97;5045356;28;20029;-77
2022/03/25 06:26:36;;;;;;;80.65;44.83;;;;;;;2.22;100.00;102865.38;5046591;28;20029;-78
2022/03/25 06:29:03;;;;;;;76.07;44.53;;;;;;;2.37;100.00;102863.28;5044702;28;20025;-77
2022/03/25 06:31:29;;;;;;;87.53;46.83;;;;;;;2.58;100.00;102864.44;5036805;28;20409;-75
2022/03/25 06:33:55;;;;;;;81.70;46.63;;;;;;;2.72;100.00;102857.97;5052008;28;20111;-78
2022/03/25 06:36:21;;;;;;;86.82;48.40;;;;;;;2.88;100.00;102863.56;5047449;28;20128;-76
2022/03/25 06:38:46;;;;;;;86.75;47.22;;;;;;;3.09;100.00;102872.47;5042658;28;20521;-77
2022/03/25 06:41:12;;;;;;;86.63;48.97;;;;;;;3.21;100.00;102875.59;5024459;28;20037;-76
2022/03/25 06:43:38;;;;;;;94.88;49.88;;;;;;;3.32;100.00;102870.91;5051394;28;20044;-76
2022/03/25 06:46:04;;;;;;;95.53;51.20;;;;;;;3.49;100.00;102881.63;5067236;28;20048;-74
2022/03/25 06:48:34;;;;;;;98.45;51.10;;;;;;;3.59;100.00;102874.38;5048895;28;20567;-77
2022/03/25 06:51:00;;;;;;;89.72;49.83;;;;;;;3.67;100.00;102877.59;5051161;28;20167;-77
2022/03/25 06:53:27;;;;;;;101.07;51.67;;;;;;;3.80;100.00;102878.03;5070247;28;20628;-77
2022/03/25 06:55:53;;;;;;;99.57;51.40;;;;;;;3.94;100.00;102872.41;5055172;28;20118;-76
2022/03/25 06:58:20;;;;;;;107.38;51.33;;;;;;;4.03;100.00;102879.00;5030139;28;20401;-76
2022/03/25 07:00:46;;;;;;;104.95;51.00;;;;;;;4.16;100.00;102887.25;5045989;28;20035;-77
2022/03/25 07:03:12;;;;;;;97.75;51.38;;;;;;;4.32;100.00;102879.78;5033667;28;20086;-77
2022/03/25 07:05:38;;;;;;;94.18;49.90;;;;;;;4.42;100.00;102886.34;5050889;28;20398;-77
2022/03/25 07:08:04;;;;;;;91.35;47.03;;;;;;;4.54;100.00;102890.25;5049090;28;20043;-77
2022/03/25 07:10:31;;;;;;;89.18;46.42;;;;;;;4.68;100.00;102895.81;5038892;28;20029;-77
2022/03/25 07:12:57;;;;;;;91.28;46.53;;;;;;;4.79;100.00;102896.28;5053609;28;20028;-78
2022/03/25 07:15:24;;;;;;;93.38;46.22;;;;;;;4.86;100.00;102894.31;5052756;28;20041;-77
2022/03/25 07:17:52;;;;;;;89.28;46.28;;;;;;;5.04;100.00;102898.81;5071832;28;20025;-75
2022/03/25 07:20:21;;;;;;;89.97;46.42;;;;;;;5.18;100.00;102900.03;5020838;28;20040;-74
2022/03/25 07:22:49;;;;;;;90.63;46.25;;;;;;;5.34;100.00;102895.09;5051180;28;20029;-72
2022/03/25 07:25:16;;;;;;;94.65;46.55;;;;;;;5.56;100.00;102905.53;5035828;28;20506;-76
2022/03/25 07:27:44;;;;;;;105.90;49.63;;;;;;;5.64;100.00;102900.84;5040331;28;20128;-77
2022/03/25 07:30:12;;;;;;;100.82;49.40;;;;;;;5.73;100.00;102907.47;5035688;28;20040;-77
2022/03/25 07:32:39;;;;;;;109.88;52.10;;;;;;;5.83;100.00;102908.75;5053175;28;20036;-77
2022/03/25 07:35:05;;;;;;;103.22;49.60;;;;;;;5.97;100.00;102908.22;5025355;28;20513;-75
2022/03/25 07:37:31;;;;;;;102.13;51.50;;;;;;;6.16;100.00;102910.91;5067631;28;20036;-76
2022/03/25 07:39:56;;;;;;;106.32;51.85;;;;;;;6.49;100.00;102915.59;5052198;28;20068;-77
2022/03/25 07:42:22;;;;;;;100.43;50.28;;;;;;;6.60;100.00;102906.38;5047533;28;20040;-76
2022/03/25 07:44:48;;;;;;;110.75;51.72;;;;;;;6.89;100.00;102916.44;5043950;28;20493;-77
2022/03/25 07:47:14;;;;;;;98.90;51.05;;;;;;;6.96;100.00;102913.47;5033634;28;20044;-77
2022/03/25 07:49:41;;;;;;;105.15;51.33;;;;;;;7.13;100.00;102917.09;5050044;28;20036;-77
2022/03/25 07:52:08;;;;;;;113.15;54.80;;;;;;;7.28;100.00;102924.19;5046508;28;20769;-76
2022/03/25 07:54:35;;;;;;;105.72;50.70;;;;;;;7.41;100.00;102927.94;5067234;28;20044;-78
2022/03/25 07:57:00;;;;;;;105.47;53.78;;;;;;;7.71;100.00;102932.63;5050170;28;20081;-78
2022/03/25 07:59:27;;;;;;;118.57;56.72;;;;;;;7.80;100.00;102933.94;5034632;28;20097;-77
2022/03/25 08:01:52;;;;;;;110.50;56.05;;;;;;;7.93;100.00;102936.78;5052109;28;20037;-78
2022/03/25 08:04:24;;;;;;;109.25;57.35;;;;;;;8.04;100.00;102937.09;5054009;28;20051;-77
2022/03/25 08:06:53;;;;;;;115.13;59.35;;;;;;;8.24;100.00;102943.94;5056688;28;20511;-79
2022/03/25 08:09:20;;;;;;;118.85;60.38;;;;;;;8.42;100.00;102952.69;5053046;28;20039;-78
2022/03/25 08:11:45;;;;;;;132.52;60.30;;;;;;;8.52;100.00;102953.06;5048650;28;20460;-78
2022/03/25 08:14:14;;;;;;;120.82;61.15;;;;;;;8.67;100.00;102954.03;5032399;28;20040;-76
2022/03/25 08:16:42;;;;;;;125.75;59.97;;;;;;;8.82;98.81;102955.84;5026378;28;20028;-77
2022/03/25 08:19:08;;;;;;;125.90;62.03;;;;;;;9.01;96.74;102965.34;5031671;28;20036;-77
2022/03/25 08:21:34;;;;;;;134.20;62.22;;;;;;;8.92;96.79;102964.88;5027267;28;20115;-76
2022/03/25 08:29:30;;;;;;;134.75;62.03;;;;;;;9.37;92.91;102962.50;5041336;28;20543;-77
2022/03/25 08:31:56;;;;;;;130.60;62.35;;;;;;;9.52;89.92;102966.88;5049708;28;20028;-76
2022/03/25 08:34:22;;;;;;;142.98;60.58;;;;;;;9.73;88.53;102975.31;5024435;28;20068;-76
2022/03/25 08:36:49;;;;;;;139.60;62.90;;;;;;;9.76;87.95;102963.81;5041980;28;20040;-75
2022/03/25 08:39:16;;;;;;;137.20;61.60;;;;;;;9.96;85.38;102964.44;5045274;28;20033;-76
2022/03/25 08:41:42;;;;;;;117.93;58.22;;;;;;;10.07;85.12;102965.53;5051239;28;20416;-76
2022/03/25 08:44:09;;;;;;;132.82;61.35;;;;;;;10.19;83.87;102969.22;5026236;28;20496;-77
2022/03/25 08:46:35;;;;;;;127.30;60.30;;;;;;;10.36;83.29;102965.66;5031863;28;20033;-77
2022/03/25 08:49:01;;;;;;;121.65;59.42;;;;;;;10.44;83.10;102973.06;5027797;28;20402;-78
2022/03/25 08:51:27;;;;;;;125.82;59.58;;;;;;;10.57;81.72;102971.38;5036079;28;20121;-77
2022/03/25 08:53:53;;;;;;;129.27;60.63;;;;;;;10.68;79.68;102974.22;5051316;28;20040;-78
2022/03/25 08:56:20;;;;;;;120.63;57.28;;;;;;;10.86;79.89;102971.41;5034800;28;20032;-78
2022/03/25 08:58:46;;;;;;;125.68;56.78;;;;;;;10.96;76.61;102976.94;5035200;28;20024;-78
2022/03/25 09:01:12;;;;;;;129.32;58.80;;;;;;;11.06;77.21;102965.75;5041842;28;20842;-78
2022/03/25 09:03:38;;;;;;;115.65;54.60;;;;;;;11.16;76.51;102973.06;5047032;28;20163;-75
2022/03/25 09:06:04;;;;;;;106.55;54.03;;;;;;;11.29;74.99;102968.72;5045116;28;20571;-77
2022/03/25 09:08:30;;;;;;;111.50;55.25;;;;;;;11.42;74.30;102972.28;5049732;28;20583;-76
2022/03/25 09:10:57;;;;;;;119.22;54.67;;;;;;;11.40;73.80;102975.94;5049679;28;20056;-78
2022/03/25 09:13:23;;;;;;;108.10;53.30;;;;;;;11.45;74.00;102971.22;5070642;28;20039;-77
2022/03/25 09:15:49;;;;;;;118.25;53.95;;;;;;;11.52;73.26;102974.31;5064264;28;20034;-78
2022/03/25 09:18:15;;;;;;;110.68;54.70;;;;;;;11.59;73.04;102973.81;5037387;28;20040;-78
2022/03/25 09:20:41;;;;;;;115.47;52.80;;;;;;;11.58;71.91;102969.50;5047831;28;20086;-76
2022/03/25 09:23:06;;;;;;;113.30;53.40;;;;;;;11.59;72.96;102975.63;5041434;28;20036;-74
2022/03/25 09:25:32;;;;;;;117.20;54.75;;;;;;;11.68;72.17;102986.38;5047124;28;20066;-78
2022/03/25 09:27:58;;;;;;;114.13;52.28;;;;;;;11.82;71.34;102993.34;5038843;28;20136;-79
2022/03/25 09:30:23;;;;;;;100.18;49.97;;;;;;;11.83;69.95;102987.16;5037895;28;20151;-79
2022/03/25 09:32:49;;;;;;;100.47;50.47;;;;;;;12.04;69.77;102979.69;5072071;28;20081;-76
2022/03/25 09:35:16;;;;;;;94.93;49.53;;;;;;;12.18;70.60;102980.56;5053211;28;20147;-75
2022/03/25 09:37:46;;;;;;;107.68;51.97;;;;;;;12.34;67.58;102989.13;5030925;28;20036;-75
2022/03/25 09:40:16;;;;;;;109.38;51.28;;;;;;;12.37;67.20;102980.16;5034647;28;20051;-78
2022/03/25 09:42:42;;;;;;;101.10;51.00;;;;;;;12.35;67.80;102984.69;5028094;28;20119;-76
2022/03/25 09:45:11;;;;;;;102.55;49.05;;;;;;;12.60;67.06;102994.38;5039288;28;20067;-76
2022/03/25 09:47:37;;;;;;;95.45;47.75;;;;;;;12.69;65.16;102987.66;5031630;28;20474;-76
2022/03/25 09:50:07;;;;;;;100.47;47.75;;;;;;;12.89;65.05;102988.94;5052549;28;20111;-77
2022/03/25 09:52:34;;;;;;;90.15;46.25;;;;;;;13.05;62.81;102990.38;5025785;28;20032;-77
2022/03/25 09:55:00;;;;;;;95.00;46.05;;;;;;;13.01;63.19;102991.50;5049660;28;20041;-79
2022/03/25 09:57:26;;;;;;;98.20;47.40;;;;;;;13.16;63.56;102994.03;5038007;28;20123;-78
2022/03/25 09:59:55;;;;;;;88.00;45.28;;;;;;;13.23;62.72;102990.03;5035219;28;20029;-74
2022/03/25 10:02:22;;;;;;;85.25;42.00;;;;;;;13.34;60.90;102990.13;5035532;28;20386;-75
2022/03/25 10:04:56;;;;;;;85.43;42.13;;;;;;;13.42;60.48;102990.41;5052081;28;20036;-77
2022/03/25 10:07:30;;;;;;;96.50;42.13;;;;;;;13.47;60.59;102999.78;5044008;28;20134;-76
2022/03/25 10:10:15;;;;;;;85.68;41.42;;;;;;;13.56;59.93;102993.84;5050294;28;20044;-77
2022/03/25 10:12:43;;;;;;;89.35;41.20;;;;;;;13.72;60.50;102983.88;5057993;28;20035;-77
2022/03/25 10:15:22;;;;;;;72.55;34.55;;;;;;;13.83;57.58;102997.09;5050602;28;20492;-78
2022/03/25 10:18:03;;;;;;;89.82;37.28;;;;;;;13.97;57.00;102989.97;5044252;28;20036;-76
2022/03/25 10:20:33;;;;;;;71.82;34.85;;;;;;;13.78;56.01;102991.31;5036219;28;20636;-77
2022/03/25 10:23:06;;;;;;;76.82;36.42;;;;;;;13.96;56.45;102994.41;5034692;28;20032;-77
2022/03/25 10:25:42;;;;;;;61.53;30.73;;;;;;;14.01;54.20;102994.91;5047557;28;20040;-76
2022/03/25 10:28:18;;;;;;;74.45;35.85;;;;;;;13.98;56.12;103000.41;5054723;28;20371;-77
2022/03/25 10:30:44;;;;;;;67.35;35.80;;;;;;;14.10;56.55;102993.38;5045835;28;20033;-77
2022/03/25 10:33:11;;;;;;;69.50;35.50;;;;;;;14.30;54.79;102997.16;5049858;28;20090;-77
2022/03/25 10:35:57;;;;;;;75.63;36.30;;;;;;;14.57;54.68;102991.59;5065456;28;20040;-77
2022/03/25 10:38:24;;;;;;;65.75;33.88;;;;;;;14.72;53.52;102996.66;5060336;28;20055;-75
2022/03/25 10:40:57;;;;;;;68.88;35.03;;;;;;;14.79;53.68;103001.34;5049963;28;20029;-79
2022/03/25 10:43:24;;;;;;;66.10;35.45;;;;;;;15.07;53.81;103000.97;5037362;28;20035;-75
2022/03/25 10:45:51;;;;;;;71.80;34.92;;;;;;;15.08;51.69;103000.88;5057834;28;20037;-77
2022/03/25 10:48:24;;;;;;;70.55;35.00;;;;;;;15.00;52.09;102998.00;5076264;28;20055;-76
2022/03/25 10:51:08;;;;;;;66.30;34.35;;;;;;;15.04;51.29;102994.16;5045286;28;20029;-77
2022/03/25 10:53:36;;;;;;;65.88;32.50;;;;;;;14.87;51.47;102997.28;5046253;28;20525;-75
2022/03/25 10:56:08;;;;;;;64.30;32.03;;;;;;;15.07;51.49;102996.56;5030461;28;20029;-77
2022/03/25 10:58:34;;;;;;;62.60;30.88;;;;;;;15.22;49.30;102993.63;5043950;28;20036;-76
2022/03/25 11:01:01;;;;;;;64.00;30.35;;;;;;;15.15;49.52;102993.31;5050734;28;20379;-77
2022/03/25 11:03:28;;;;;;;57.67;28.48;;;;;;;15.17;48.81;102992.22;5033874;28;20040;-79
2022/03/25 11:05:54;;;;;;;58.97;28.48;;;;;;;15.21;48.05;102992.81;5037171;28;20036;-79
2022/03/25 11:08:21;;;;;;;51.63;26.92;;;;;;;15.30;46.13;102996.53;5066454;28;20036;-78
2022/03/25 11:10:47;;;;;;;54.17;24.98;;;;;;;15.35;46.26;102997.84;5036368;28;20032;-77